Maquam, Vermont
Current Conditions -  °F | °C
As of 12:15 PM on Sunday 23 Nov 2014 (Local Time) from KFSO Reporting Station
Overcast Overcast  
Wind Chill: 43°   Ceiling: 2000
Heat Index: 43°   Visibility: 10mi
Dew Point: 39°   Wind: 3mph
Humidity: 87%   Direction: 190°S
Pressure: 30.03"   Gusts: NA
Location:  44.9002°N, 73.1493°W
Report Text: KFSO 231715Z AUTO 19003KT 10SM OVC020 06/04 A3003 RMK AO2 T00600040
Loading
Personal Weather Stations






























Interactive Weather Map New forecast layout! Learn more

10-Day Weather Forecast

Advertisements
Track Severe Weather on mobile